createdAt,value
2022-12-04T00:01:29.501Z,4.10
2022-12-04T00:04:01.812Z,4.10
2022-12-04T00:06:29.689Z,4.10
2022-12-04T00:08:57.465Z,4.10
2022-12-04T00:11:29.774Z,4.00
2022-12-04T00:14:02.961Z,4.00
2022-12-04T00:16:35.296Z,4.00
2022-12-04T00:19:04.604Z,4.00
2022-12-04T00:21:34.805Z,4.00
2022-12-04T00:24:13.065Z,4.00
2022-12-04T00:26:46.219Z,4.00
2022-12-04T00:29:13.363Z,4.00
2022-12-04T00:31:46.632Z,4.00
2022-12-04T00:34:15.259Z,4.00
2022-12-04T00:36:44.375Z,4.00
2022-12-04T00:39:11.394Z,4.00
2022-12-04T00:41:44.513Z,4.00
2022-12-04T00:44:11.638Z,4.00
2022-12-04T00:46:38.576Z,4.00
2022-12-04T00:49:08.753Z,4.00
2022-12-04T00:51:37.282Z,4.10
2022-12-04T00:54:04.677Z,4.10
2022-12-04T00:56:31.711Z,4.10
2022-12-04T00:59:01.293Z,4.00
2022-12-04T01:01:32.481Z,4.00
2022-12-04T01:03:59.702Z,4.00
2022-12-04T01:06:29.044Z,4.00
2022-12-04T01:08:58.886Z,4.00
2022-12-04T01:11:28.447Z,4.10
2022-12-04T01:13:59.758Z,4.20
2022-12-04T01:16:32.538Z,4.10
2022-12-04T01:19:00.146Z,4.10
2022-12-04T01:21:30.123Z,4.10
2022-12-04T01:24:16.244Z,4.00
2022-12-04T01:26:43.337Z,4.00
2022-12-04T01:29:13.157Z,4.00
2022-12-04T01:31:46.893Z,4.00
2022-12-04T01:34:14.220Z,3.90
2022-12-04T01:36:44.264Z,4.00
2022-12-04T01:39:11.216Z,4.00
2022-12-04T01:41:39.604Z,4.00
2022-12-04T01:44:16.825Z,4.00
2022-12-04T01:46:50.485Z,4.00
2022-12-04T01:49:25.138Z,4.00
2022-12-04T01:51:56.310Z,4.00
2022-12-04T01:54:30.507Z,4.00
2022-12-04T01:57:07.664Z,4.00
2022-12-04T01:59:43.265Z,3.90
2022-12-04T02:02:15.151Z,3.90
2022-12-04T02:04:43.711Z,4.00
2022-12-04T02:07:12.018Z,4.00
2022-12-04T02:09:41.395Z,4.00
2022-12-04T02:12:24.428Z,4.00
2022-12-04T02:15:07.125Z,3.90
2022-12-04T02:17:46.475Z,3.90
2022-12-04T02:20:39.093Z,3.90
2022-12-04T02:23:42.414Z,3.90
2022-12-04T02:26:33.685Z,3.90
2022-12-04T02:29:10.910Z,3.90
2022-12-04T02:31:45.240Z,3.80
2022-12-04T02:34:25.230Z,3.80
2022-12-04T02:37:00.278Z,3.90
2022-12-04T02:39:39.221Z,3.90
2022-12-04T02:42:13.726Z,3.90
2022-12-04T02:44:45.503Z,3.90
2022-12-04T02:47:22.433Z,3.90
2022-12-04T02:49:55.567Z,3.90
2022-12-04T02:52:36.814Z,3.90
2022-12-04T02:55:11.528Z,3.80
2022-12-04T02:57:45.577Z,3.80
2022-12-04T03:00:15.796Z,3.80
2022-12-04T03:02:53.606Z,3.80
2022-12-04T03:05:34.770Z,3.90
2022-12-04T03:08:08.578Z,3.90
2022-12-04T03:10:47.168Z,3.80
2022-12-04T03:13:19.644Z,3.80
2022-12-04T03:15:51.921Z,3.80
2022-12-04T03:18:22.752Z,3.80
2022-12-04T03:20:58.610Z,3.80
2022-12-04T03:23:39.460Z,3.80
2022-12-04T03:26:22.898Z,3.80
2022-12-04T03:28:59.612Z,3.80
2022-12-04T03:31:49.504Z,3.80
2022-12-04T03:34:25.335Z,3.90
2022-12-04T03:36:57.169Z,3.80
2022-12-04T03:39:33.120Z,3.80
2022-12-04T03:42:03.711Z,3.80
2022-12-04T03:44:39.912Z,3.80
2022-12-04T03:47:12.302Z,3.80
2022-12-04T03:49:49.792Z,3.80
2022-12-04T03:52:24.782Z,3.80
2022-12-04T03:54:58.124Z,3.80
2022-12-04T03:57:32.998Z,3.80
2022-12-04T04:00:06.950Z,3.80
2022-12-04T04:02:41.575Z,3.80
2022-12-04T04:05:14.138Z,3.90
2022-12-04T04:07:49.603Z,3.90
2022-12-04T04:10:25.413Z,3.90
2022-12-04T04:13:21.116Z,3.80
2022-12-04T04:16:17.367Z,3.90
2022-12-04T04:19:08.229Z,3.80
2022-12-04T04:21:58.590Z,3.80
2022-12-04T04:24:37.635Z,3.80
2022-12-04T04:27:05.173Z,3.80
2022-12-04T04:29:38.275Z,3.80
2022-12-04T04:32:13.260Z,3.80
2022-12-04T04:34:52.638Z,3.80
2022-12-04T04:37:31.950Z,3.70
2022-12-04T04:40:12.785Z,3.70
2022-12-04T04:42:49.381Z,3.80
2022-12-04T04:45:21.584Z,3.80
2022-12-04T04:48:02.451Z,3.80
2022-12-04T04:50:32.233Z,3.80
2022-12-04T04:53:06.337Z,3.90
2022-12-04T04:55:35.575Z,3.90
2022-12-04T04:58:14.114Z,3.90
2022-12-04T05:00:51.157Z,3.80
2022-12-04T05:03:24.046Z,3.80
2022-12-04T05:05:55.726Z,3.80
2022-12-04T05:08:23.221Z,3.80
2022-12-04T05:10:53.339Z,3.80
2022-12-04T05:13:22.540Z,3.90
2022-12-04T05:15:59.635Z,3.90
2022-12-04T05:18:34.535Z,3.80
2022-12-04T05:21:09.231Z,3.80
2022-12-04T05:23:36.164Z,3.80
2022-12-04T05:26:06.411Z,3.80
2022-12-04T05:28:33.325Z,3.80
2022-12-04T05:31:09.740Z,3.80
2022-12-04T05:33:44.847Z,3.80
2022-12-04T05:36:13.506Z,3.80
2022-12-04T05:38:40.570Z,3.80
2022-12-04T05:41:08.134Z,3.80
2022-12-04T05:43:35.500Z,3.80
2022-12-04T05:46:08.139Z,3.80
2022-12-04T05:48:35.691Z,3.80
2022-12-04T05:51:06.601Z,3.80
2022-12-04T05:53:34.898Z,3.80
2022-12-04T05:56:04.652Z,3.80
2022-12-04T05:58:34.621Z,3.80
2022-12-04T06:01:08.244Z,3.70
2022-12-04T06:03:35.194Z,3.70
2022-12-04T06:06:02.354Z,3.80
2022-12-04T06:08:32.284Z,3.80
2022-12-04T06:11:14.215Z,3.80
2022-12-04T06:13:48.311Z,3.80
2022-12-04T06:16:17.863Z,3.80
2022-12-04T06:18:50.840Z,3.80
2022-12-04T06:21:19.314Z,3.80
2022-12-04T06:23:48.699Z,3.80
2022-12-04T06:26:17.375Z,3.80
2022-12-04T06:28:47.107Z,3.80
2022-12-04T06:31:16.618Z,3.90
2022-12-04T06:33:48.527Z,3.80
2022-12-04T06:36:18.316Z,3.90
2022-12-04T06:38:45.932Z,3.90
2022-12-04T06:41:17.992Z,3.80
2022-12-04T06:43:48.817Z,3.80
2022-12-04T06:46:19.139Z,3.90
2022-12-04T06:48:56.296Z,3.90
2022-12-04T06:51:25.540Z,3.90
2022-12-04T06:53:54.445Z,3.90
2022-12-04T06:56:25.784Z,3.90
2022-12-04T06:58:55.233Z,3.90
2022-12-04T07:01:29.610Z,3.90
2022-12-04T07:04:01.173Z,3.90
2022-12-04T07:06:31.146Z,3.90
2022-12-04T07:09:11.295Z,4.00
2022-12-04T07:11:46.281Z,4.00
2022-12-04T07:14:17.331Z,4.00
2022-12-04T07:16:44.425Z,4.00
2022-12-04T07:19:14.402Z,4.00
2022-12-04T07:21:41.991Z,4.00
2022-12-04T07:24:14.096Z,4.00
2022-12-04T07:26:51.250Z,4.00
2022-12-04T07:29:18.198Z,4.00
2022-12-04T07:31:46.644Z,4.00
2022-12-04T07:34:13.849Z,4.00
2022-12-04T07:36:40.904Z,4.10
2022-12-04T07:39:08.050Z,4.10
2022-12-04T07:41:35.412Z,4.10
2022-12-04T07:44:05.304Z,4.10
2022-12-04T07:46:32.562Z,4.20
2022-12-04T07:49:00.178Z,4.10
2022-12-04T07:51:29.213Z,4.10
2022-12-04T07:54:03.799Z,4.20
2022-12-04T07:56:33.621Z,4.10
2022-12-04T07:59:07.963Z,4.10
2022-12-04T08:01:37.420Z,4.20
2022-12-04T08:04:04.692Z,4.20
2022-12-04T08:06:35.103Z,4.20
2022-12-04T08:09:09.554Z,4.30
2022-12-04T08:11:37.204Z,4.20
2022-12-04T08:14:11.912Z,4.30
2022-12-04T08:16:39.073Z,4.30
2022-12-04T08:19:06.293Z,4.20
2022-12-04T08:21:34.047Z,4.30
2022-12-04T08:24:02.274Z,4.30
2022-12-04T08:26:31.207Z,4.30
2022-12-04T08:28:59.136Z,4.30
2022-12-04T08:31:31.071Z,4.30
2022-12-04T08:34:07.095Z,4.30
2022-12-04T08:36:37.188Z,4.30
2022-12-04T08:39:05.161Z,4.40
2022-12-04T08:44:22.477Z,4.40
2022-12-04T08:46:52.791Z,4.40
2022-12-04T08:49:19.898Z,4.50
2022-12-04T08:51:54.465Z,4.40
2022-12-04T08:54:21.616Z,4.40
2022-12-04T08:56:50.328Z,4.40
2022-12-04T08:59:17.277Z,4.40
2022-12-04T09:01:51.973Z,4.40
2022-12-04T09:04:19.704Z,4.40
2022-12-04T09:06:46.777Z,4.30
2022-12-04T09:09:13.929Z,4.30
2022-12-04T09:11:45.302Z,4.40
2022-12-04T09:14:12.752Z,4.40
2022-12-04T09:16:39.761Z,4.40
2022-12-04T09:19:08.236Z,4.40
2022-12-04T09:21:42.327Z,4.50
2022-12-04T09:24:12.357Z,4.50
2022-12-04T09:26:42.283Z,4.50
2022-12-04T09:29:10.774Z,4.50
2022-12-04T09:31:42.055Z,4.50
2022-12-04T09:34:10.331Z,4.50
2022-12-04T09:36:38.424Z,4.50
2022-12-04T09:39:06.633Z,4.50
2022-12-04T09:42:05.462Z,4.60
2022-12-04T09:44:46.104Z,4.60
2022-12-04T09:47:24.242Z,4.60
2022-12-04T09:49:58.718Z,4.60
2022-12-04T09:52:48.179Z,4.60
2022-12-04T09:55:24.290Z,4.60
2022-12-04T09:58:00.003Z,4.70
2022-12-04T10:00:31.181Z,4.60
2022-12-04T10:03:06.543Z,4.60
2022-12-04T10:05:52.576Z,4.60
2022-12-04T10:08:23.937Z,4.70
2022-12-04T10:11:04.288Z,4.70
2022-12-04T10:14:19.472Z,4.70
2022-12-04T10:17:06.913Z,4.70
2022-12-04T10:19:47.349Z,4.70
2022-12-04T10:22:27.536Z,4.70
2022-12-04T10:25:04.935Z,4.80
2022-12-04T10:27:42.998Z,4.80
2022-12-04T10:30:19.431Z,4.70
2022-12-04T10:32:48.878Z,4.70
2022-12-04T10:35:22.738Z,4.70
2022-12-04T10:37:57.464Z,4.70
2022-12-04T10:40:31.755Z,4.70
2022-12-04T10:43:13.943Z,4.80
2022-12-04T10:45:53.529Z,4.80
2022-12-04T10:48:32.819Z,4.80
2022-12-04T10:51:03.149Z,4.80
2022-12-04T10:53:37.222Z,4.80
2022-12-04T10:56:12.892Z,4.80
2022-12-04T10:58:44.189Z,4.80
2022-12-04T11:01:15.705Z,4.90
2022-12-04T11:03:48.841Z,4.90
2022-12-04T11:06:29.080Z,4.90
2022-12-04T11:09:00.456Z,4.90
2022-12-04T11:11:30.956Z,4.90
2022-12-04T11:14:06.156Z,5.00
2022-12-04T11:16:38.051Z,5.00
2022-12-04T11:19:21.274Z,5.00
2022-12-04T11:21:49.932Z,5.00
2022-12-04T11:24:24.050Z,5.00
2022-12-04T11:26:54.603Z,5.10
2022-12-04T11:29:30.628Z,5.00
2022-12-04T11:32:07.185Z,5.00
2022-12-04T11:34:38.352Z,5.10
2022-12-04T11:37:23.138Z,5.10
2022-12-04T11:39:54.001Z,5.20
2022-12-04T11:42:27.102Z,5.20
2022-12-04T11:45:20.364Z,5.30
2022-12-04T11:47:55.254Z,5.20
2022-12-04T11:50:35.490Z,5.20
2022-12-04T11:53:12.569Z,5.20
2022-12-04T11:56:13.816Z,5.20
2022-12-04T11:59:24.174Z,5.20
2022-12-04T12:02:12.822Z,5.20
2022-12-04T12:05:15.159Z,5.20
2022-12-04T12:08:02.551Z,5.30
2022-12-04T12:10:44.402Z,5.20
2022-12-04T12:13:28.168Z,5.20
2022-12-04T12:16:20.573Z,5.30
2022-12-04T12:19:01.731Z,5.30
2022-12-04T12:21:50.045Z,5.30
2022-12-04T12:24:30.494Z,5.30
2022-12-04T12:27:12.363Z,5.30
2022-12-04T12:29:59.369Z,5.30
2022-12-04T12:32:44.554Z,5.40
2022-12-04T12:35:31.186Z,5.50
2022-12-04T12:38:10.912Z,5.50
2022-12-04T12:40:42.957Z,5.50
2022-12-04T12:43:16.601Z,5.40
2022-12-04T12:45:52.652Z,5.30
2022-12-04T12:48:36.898Z,5.40
2022-12-04T12:51:30.139Z,5.40
2022-12-04T12:54:16.104Z,5.40
2022-12-04T12:56:51.347Z,5.40
2022-12-04T12:59:22.043Z,5.40
2022-12-04T13:02:01.076Z,5.40
2022-12-04T13:04:35.565Z,5.40
2022-12-04T13:07:34.447Z,5.40
2022-12-04T13:10:17.022Z,5.40
2022-12-04T13:12:50.374Z,5.40
2022-12-04T13:15:22.578Z,5.40
2022-12-04T13:17:56.301Z,5.40
2022-12-04T13:20:28.921Z,5.40
2022-12-04T13:23:21.034Z,5.30
2022-12-04T13:26:02.046Z,5.40
2022-12-04T13:28:52.708Z,5.40
2022-12-04T13:31:32.823Z,5.40
2022-12-04T13:34:26.924Z,5.40
2022-12-04T13:37:23.979Z,5.40
2022-12-04T13:40:33.724Z,5.40
2022-12-04T13:43:45.676Z,5.40
2022-12-04T13:46:44.502Z,5.40
2022-12-04T13:49:28.661Z,5.40
2022-12-04T13:52:06.975Z,5.40
2022-12-04T13:54:36.717Z,5.40
2022-12-04T13:57:22.163Z,5.40
2022-12-04T14:00:05.258Z,5.40
2022-12-04T14:02:37.726Z,5.30
2022-12-04T14:05:10.183Z,5.30
2022-12-04T14:08:04.217Z,5.40
2022-12-04T14:10:37.369Z,5.40
2022-12-04T14:13:17.277Z,5.40
2022-12-04T14:15:44.991Z,5.40
2022-12-04T14:18:27.948Z,5.40
2022-12-04T14:21:04.742Z,5.40
2022-12-04T14:23:43.474Z,5.30
2022-12-04T14:26:37.312Z,5.30
2022-12-04T14:29:35.224Z,5.30
2022-12-04T14:32:17.557Z,5.30
2022-12-04T14:34:48.578Z,5.30
2022-12-04T14:37:29.841Z,5.20
2022-12-04T14:40:00.724Z,5.20
2022-12-04T14:42:34.302Z,5.20
2022-12-04T14:45:05.462Z,5.30
2022-12-04T14:47:45.986Z,5.30
2022-12-04T14:50:32.119Z,5.30
2022-12-04T14:53:16.100Z,5.30
2022-12-04T14:55:52.674Z,5.20
2022-12-04T14:58:30.963Z,5.30
2022-12-04T15:01:02.295Z,5.20
2022-12-04T15:03:36.697Z,5.20
2022-12-04T15:06:12.231Z,5.20
2022-12-04T15:09:16.346Z,5.20
2022-12-04T15:14:53.486Z,5.30
2022-12-04T15:17:23.546Z,5.20
2022-12-04T15:19:56.361Z,5.20
2022-12-04T15:22:27.583Z,5.20
2022-12-04T15:25:13.328Z,5.30
2022-12-04T15:27:42.476Z,5.20
2022-12-04T15:30:24.582Z,5.20
2022-12-04T15:32:57.910Z,5.20
2022-12-04T15:35:28.898Z,5.20
2022-12-04T15:38:02.827Z,5.20
2022-12-04T15:40:34.238Z,5.20
2022-12-04T15:43:17.049Z,5.20
2022-12-04T15:45:44.946Z,5.20
2022-12-04T15:48:28.810Z,5.20
2022-12-04T15:51:01.237Z,5.10
2022-12-04T15:53:33.767Z,5.30
2022-12-04T15:56:05.749Z,5.20
2022-12-04T15:58:35.029Z,5.20
2022-12-04T16:01:07.979Z,5.20
2022-12-04T16:03:49.519Z,5.20
2022-12-04T16:06:23.514Z,5.20
2022-12-04T16:08:53.973Z,5.20
2022-12-04T16:11:35.232Z,5.20
2022-12-04T16:14:21.813Z,5.10
2022-12-04T16:16:52.615Z,5.20
2022-12-04T16:19:31.654Z,5.10
2022-12-04T16:22:05.369Z,5.10
2022-12-04T16:24:32.284Z,5.10
2022-12-04T16:27:12.613Z,5.10
2022-12-04T16:29:50.347Z,5.20
2022-12-04T16:32:20.512Z,5.20
2022-12-04T16:34:49.546Z,5.20
2022-12-04T16:37:23.377Z,5.20
2022-12-04T16:39:50.755Z,5.20
2022-12-04T16:42:22.815Z,5.20
2022-12-04T16:44:52.628Z,5.20
2022-12-04T16:47:22.554Z,5.30
2022-12-04T16:49:51.961Z,5.30
2022-12-04T16:52:19.178Z,5.30
2022-12-04T16:54:46.290Z,5.30
2022-12-04T16:57:13.294Z,5.30
2022-12-04T16:59:43.509Z,5.30
2022-12-04T17:02:20.910Z,5.30
2022-12-04T17:04:58.144Z,5.40
2022-12-04T17:07:25.530Z,5.40
2022-12-04T17:09:58.749Z,5.40
2022-12-04T17:12:30.382Z,5.40
2022-12-04T17:15:01.570Z,5.50
2022-12-04T17:17:32.264Z,5.50
2022-12-04T17:19:59.229Z,5.50
2022-12-04T17:22:26.544Z,5.40
2022-12-04T17:24:56.283Z,5.40
2022-12-04T17:27:24.444Z,5.40
2022-12-04T17:29:55.651Z,5.30
2022-12-04T17:32:24.923Z,5.30
2022-12-04T17:34:58.824Z,5.20
2022-12-04T17:37:28.530Z,5.30
2022-12-04T17:39:58.614Z,5.20
2022-12-04T17:42:35.720Z,5.30
2022-12-04T17:45:08.692Z,5.30
2022-12-04T17:47:40.197Z,5.30
2022-12-04T17:50:08.627Z,5.30
2022-12-04T17:52:38.938Z,5.30
2022-12-04T17:55:11.392Z,5.30
2022-12-04T17:57:45.339Z,5.30
2022-12-04T18:00:16.207Z,5.30
2022-12-04T18:02:50.109Z,5.30
2022-12-04T18:05:27.339Z,5.40
2022-12-04T18:07:55.483Z,5.30
2022-12-04T18:10:25.332Z,5.30
2022-12-04T18:13:02.847Z,5.30
2022-12-04T18:15:39.306Z,5.20
2022-12-04T18:18:08.096Z,5.20
2022-12-04T18:20:35.064Z,5.30
2022-12-04T18:23:07.012Z,5.30
2022-12-04T18:25:41.090Z,5.30
2022-12-04T18:28:11.216Z,5.30
2022-12-04T18:30:43.030Z,5.20
2022-12-04T18:33:14.857Z,5.20
2022-12-04T18:35:56.814Z,5.20
2022-12-04T18:38:26.632Z,5.30
2022-12-04T18:41:02.599Z,5.30
2022-12-04T18:43:31.214Z,5.30
2022-12-04T18:46:07.889Z,5.20
2022-12-04T18:48:48.537Z,5.20
2022-12-04T18:51:25.981Z,5.00
2022-12-04T18:53:56.005Z,4.90
2022-12-04T18:56:25.696Z,4.90
2022-12-04T18:58:58.010Z,4.90
2022-12-04T19:01:31.484Z,5.00
2022-12-04T19:04:07.391Z,5.00
2022-12-04T19:06:37.257Z,4.90
2022-12-04T19:09:09.703Z,5.00
2022-12-04T19:11:45.630Z,4.90
2022-12-04T19:14:23.471Z,4.80
2022-12-04T19:16:52.895Z,4.80
2022-12-04T19:19:31.901Z,4.90
2022-12-04T19:22:01.050Z,4.90
2022-12-04T19:24:33.759Z,4.90
2022-12-04T19:27:15.977Z,4.90
2022-12-04T19:29:43.608Z,4.80
2022-12-04T19:32:12.423Z,4.80
2022-12-04T19:34:40.795Z,4.90
2022-12-04T19:37:10.403Z,5.00
2022-12-04T19:39:40.669Z,5.10
2022-12-04T19:42:08.109Z,5.00
2022-12-04T19:44:49.466Z,5.00
2022-12-04T19:47:22.905Z,5.00
2022-12-04T19:49:51.299Z,4.90
2022-12-04T19:52:18.362Z,5.00
2022-12-04T19:54:47.836Z,5.00
2022-12-04T19:57:18.047Z,5.00
2022-12-04T19:59:46.833Z,5.00
2022-12-04T20:02:14.576Z,5.00
2022-12-04T20:04:45.546Z,5.00
2022-12-04T20:07:17.485Z,5.10
2022-12-04T20:09:55.070Z,5.20
2022-12-04T20:12:22.342Z,5.20
2022-12-04T20:14:49.437Z,5.30
2022-12-04T20:17:18.084Z,5.20
2022-12-04T20:19:48.388Z,5.20
2022-12-04T20:22:24.280Z,5.10
2022-12-04T20:24:51.261Z,5.00
2022-12-04T20:27:20.092Z,4.90
2022-12-04T20:29:47.021Z,4.90
2022-12-04T20:32:16.706Z,5.00
2022-12-04T20:34:46.123Z,5.00
2022-12-04T20:37:13.082Z,5.00
2022-12-04T20:39:46.298Z,5.00
2022-12-04T20:42:19.397Z,5.00
2022-12-04T20:44:49.382Z,5.00
2022-12-04T20:47:23.686Z,5.00
2022-12-04T20:49:55.427Z,5.00
2022-12-04T20:52:28.623Z,5.10
2022-12-04T20:54:58.870Z,5.00
2022-12-04T20:57:28.562Z,5.00
2022-12-04T21:00:02.681Z,5.00
2022-12-04T21:02:32.528Z,5.00
2022-12-04T21:04:59.503Z,5.00
2022-12-04T21:07:31.291Z,5.00
2022-12-04T21:10:00.116Z,5.00
2022-12-04T21:12:46.123Z,5.00
2022-12-04T21:15:32.132Z,5.10
2022-12-04T21:18:03.881Z,5.00
2022-12-04T21:20:40.074Z,4.90
2022-12-04T21:23:07.267Z,5.00
2022-12-04T21:25:36.606Z,5.00
2022-12-04T21:28:03.654Z,5.00
2022-12-04T21:30:34.849Z,4.70
2022-12-04T21:33:02.036Z,4.80
2022-12-04T21:35:29.047Z,4.80
2022-12-04T21:37:56.906Z,4.80
2022-12-04T21:40:28.383Z,4.60
2022-12-04T21:42:59.539Z,4.70
2022-12-04T21:45:28.968Z,4.70
2022-12-04T21:47:56.070Z,4.70
2022-12-04T21:50:24.447Z,4.70
2022-12-04T21:52:54.850Z,4.80
2022-12-04T21:55:24.215Z,4.80
2022-12-04T21:57:53.318Z,4.90
2022-12-04T22:00:21.800Z,4.80
2022-12-04T22:02:51.577Z,4.80
2022-12-04T22:05:21.071Z,4.80
2022-12-04T22:07:54.552Z,4.70
2022-12-04T22:10:22.133Z,4.70
2022-12-04T22:12:50.531Z,4.80
2022-12-04T22:15:22.099Z,4.70
2022-12-04T22:17:51.451Z,4.70
2022-12-04T22:20:22.686Z,4.70
2022-12-04T22:22:49.930Z,4.80
2022-12-04T22:25:25.483Z,4.70
2022-12-04T22:27:56.477Z,4.70
2022-12-04T22:30:28.147Z,4.80
2022-12-04T22:33:05.184Z,4.80
2022-12-04T22:35:38.206Z,4.80
2022-12-04T22:38:08.802Z,4.70
2022-12-04T22:40:43.729Z,4.70
2022-12-04T22:43:10.814Z,4.60
2022-12-04T22:45:39.107Z,4.70
2022-12-04T22:48:06.241Z,4.70
2022-12-04T22:50:33.200Z,4.80
2022-12-04T22:53:02.224Z,4.80
2022-12-04T22:55:32.108Z,4.80
2022-12-04T22:57:59.062Z,4.80
2022-12-04T23:00:26.626Z,4.80
2022-12-04T23:02:59.602Z,4.70
2022-12-04T23:05:26.618Z,4.70
2022-12-04T23:07:55.557Z,4.70
2022-12-04T23:10:22.573Z,4.60
2022-12-04T23:12:52.546Z,4.70
2022-12-04T23:15:19.519Z,4.70
2022-12-04T23:17:50.877Z,4.70
2022-12-04T23:20:22.247Z,4.60
2022-12-04T23:22:59.193Z,4.60
2022-12-04T23:25:29.236Z,4.60
2022-12-04T23:27:59.165Z,4.50
2022-12-04T23:30:32.580Z,4.40
2022-12-04T23:33:06.461Z,4.50
2022-12-04T23:35:34.845Z,4.40
2022-12-04T23:38:02.950Z,4.40
2022-12-04T23:40:32.062Z,4.50
2022-12-04T23:43:02.130Z,4.50
2022-12-04T23:45:29.485Z,4.60
2022-12-04T23:47:59.619Z,4.60
2022-12-04T23:50:29.429Z,4.60
2022-12-04T23:53:03.782Z,4.60
2022-12-04T23:55:34.387Z,4.60
2022-12-04T23:58:07.443Z,4.70
